Time;durP1;ratioP1;P1;durP2;ratioP2;P2;SDS_P1;SDS_P2;PMS_P1;PMS_P2;Temp;Humidity;BMP_temperature;BMP_pressure;BME280_temperature;BME280_humidity;BME280_pressure;Samples;Min_cycle;Max_cycle;Signal;HPM_P1;HPM_P2
2022/02/07 00:00:18;;;;;;;0.43;0.43;;;17.50;63.20;;;;;;10323165;28;20593;-69
2022/02/07 00:05:40;;;;;;;0.77;0.50;;;17.50;63.20;;;;;;10328745;28;20611;-69
2022/02/07 00:11:03;;;;;;;0.50;0.30;;;17.50;63.30;;;;;;10328814;28;20242;-69
2022/02/07 00:16:26;;;;;;;0.43;0.40;;;17.50;63.30;;;;;;10328357;28;20216;-69
2022/02/07 00:21:49;;;;;;;1.20;0.40;;;17.40;63.20;;;;;;10329089;28;20305;-69
2022/02/07 00:27:11;;;;;;;0.80;0.33;;;17.40;63.00;;;;;;10322017;28;20227;-69
2022/02/07 00:32:35;;;;;;;0.73;0.37;;;17.40;63.00;;;;;;10324329;28;20203;-69
2022/02/07 00:38:04;;;;;;;1.07;0.40;;;17.40;63.10;;;;;;10337645;28;20222;-68
2022/02/07 00:43:32;;;;;;;1.37;0.40;;;17.40;63.20;;;;;;10336666;28;20690;-68
2022/02/07 00:48:56;;;;;;;1.07;0.50;;;17.50;63.20;;;;;;10332048;28;20220;-69
2022/02/07 00:54:18;;;;;;;1.30;0.47;;;17.40;63.10;;;;;;10332921;28;20695;-69
2022/02/07 00:59:40;;;;;;;0.80;0.40;;;17.40;63.00;;;;;;10330782;28;20234;-68
2022/02/07 01:05:04;;;;;;;1.20;0.50;;;17.40;63.10;;;;;;10336402;28;20659;-68
2022/02/07 01:10:33;;;;;;;0.77;0.43;;;17.50;63.10;;;;;;10335094;28;20717;-69
2022/02/07 01:16:04;;;;;;;0.67;0.50;;;17.40;62.90;;;;;;10334511;28;20192;-68
2022/02/07 01:50:09;;;;;;;0.63;0.50;;;17.40;62.80;;;;;;10334328;28;20195;-68
2022/02/07 01:55:37;;;;;;;1.57;0.50;;;17.40;62.90;;;;;;10333242;28;20250;-68
2022/02/07 02:01:00;;;;;;;1.23;0.63;;;17.40;62.90;;;;;;10327487;28;20223;-69
2022/02/07 02:06:23;;;;;;;1.63;0.60;;;17.40;62.90;;;;;;10333406;28;20682;-68
2022/02/07 02:11:46;;;;;;;1.70;0.50;;;17.40;62.80;;;;;;10332574;28;20279;-69
2022/02/07 02:32:38;;;;;;;1.30;0.60;;;17.40;62.70;;;;;;10333120;28;20219;-69
2022/02/07 02:46:03;;;;;;;0.80;0.50;;;17.40;62.80;;;;;;10329889;28;20622;-69
2022/02/07 02:51:25;;;;;;;1.70;0.93;;;17.40;62.80;;;;;;10329501;28;20214;-69
2022/02/07 02:56:50;;;;;;;1.30;0.70;;;17.40;62.90;;;;;;10330009;28;20248;-69
2022/02/07 03:02:12;;;;;;;1.53;0.40;;;17.40;62.90;;;;;;10327056;28;20694;-69
2022/02/07 03:07:35;;;;;;;1.17;0.40;;;17.40;62.80;;;;;;10330973;28;20211;-69
2022/02/07 03:13:09;;;;;;;1.43;0.60;;;17.40;62.80;;;;;;10327260;28;20195;-68
2022/02/07 03:18:31;;;;;;;0.97;0.50;;;17.40;62.80;;;;;;10329881;28;20215;-69
2022/02/07 03:23:54;;;;;;;1.60;0.70;;;17.40;62.80;;;;;;10327257;28;20211;-69
2022/02/07 03:29:17;;;;;;;1.23;0.60;;;17.40;62.70;;;;;;10328407;28;20230;-68
2022/02/07 03:34:39;;;;;;;0.93;0.40;;;17.40;62.80;;;;;;10330813;28;20195;-68
2022/02/07 03:40:01;;;;;;;1.17;0.50;;;17.40;62.80;;;;;;10330770;28;20210;-68
2022/02/07 03:45:25;;;;;;;1.00;0.60;;;17.40;62.80;;;;;;10330629;28;20670;-68
2022/02/07 03:50:47;;;;;;;0.53;0.40;;;17.40;62.80;;;;;;10330223;28;20221;-69
2022/02/07 03:56:09;;;;;;;1.07;0.60;;;17.40;62.70;;;;;;10328884;28;20203;-68
2022/02/07 04:01:35;;;;;;;1.13;0.57;;;17.40;62.70;;;;;;10324377;28;20710;-69
2022/02/07 04:06:57;;;;;;;1.13;0.40;;;17.40;62.70;;;;;;10328585;28;20238;-68
2022/02/07 04:12:23;;;;;;;1.17;0.60;;;17.40;62.70;;;;;;10328448;28;20199;-69
2022/02/07 04:17:53;;;;;;;1.23;0.67;;;17.40;62.60;;;;;;10329686;28;20211;-68
2022/02/07 04:23:15;;;;;;;1.07;0.40;;;17.40;62.50;;;;;;10329670;28;20286;-68
2022/02/07 04:28:37;;;;;;;1.20;0.57;;;17.40;62.50;;;;;;10328902;28;20223;-68
2022/02/07 04:34:00;;;;;;;0.97;0.37;;;17.40;62.50;;;;;;10329576;28;20694;-69
2022/02/07 04:39:23;;;;;;;0.93;0.40;;;17.40;62.50;;;;;;10328386;28;20219;-68
2022/02/07 04:44:55;;;;;;;0.83;0.40;;;17.40;62.50;;;;;;10329080;28;20226;-68
2022/02/07 04:50:30;;;;;;;1.40;0.70;;;17.40;62.50;;;;;;10327573;28;20214;-69
2022/02/07 04:56:14;;;;;;;1.53;0.70;;;17.40;62.50;;;;;;10322813;28;20639;-68
2022/02/07 05:01:43;;;;;;;1.20;0.60;;;17.40;62.50;;;;;;10369647;23;20228;-69
2022/02/07 05:18:37;;;;;;;0.97;0.30;;;17.40;62.50;;;;;;10268254;28;20233;-70
2022/02/07 05:24:01;;;;;;;0.77;0.50;;;17.50;62.60;;;;;;10334516;28;20241;-71
2022/02/07 05:29:23;;;;;;;0.90;0.40;;;17.40;62.80;;;;;;10332574;28;20234;-71
2022/02/07 05:34:45;;;;;;;1.00;0.50;;;17.40;62.80;;;;;;10328734;28;20210;-71
2022/02/07 05:40:14;;;;;;;0.63;0.30;;;17.40;62.70;;;;;;10333782;28;20227;-70
2022/02/07 05:45:36;;;;;;;0.60;0.30;;;17.50;62.80;;;;;;10335223;28;20202;-70
2022/02/07 05:50:58;;;;;;;1.07;0.57;;;17.50;62.80;;;;;;10334184;28;20210;-71
2022/02/07 05:56:22;;;;;;;0.93;0.50;;;17.50;62.70;;;;;;10334314;28;20199;-70
2022/02/07 06:01:44;;;;;;;1.57;0.40;;;17.50;62.80;;;;;;10327462;28;20717;-71
2022/02/07 06:07:06;;;;;;;0.97;0.50;;;17.50;62.80;;;;;;10332351;28;20202;-71
2022/02/07 06:12:33;;;;;;;1.93;0.67;;;17.50;62.80;;;;;;10332572;28;20222;-71
2022/02/07 06:17:58;;;;;;;0.73;0.33;;;17.50;62.80;;;;;;10333293;28;20574;-71
2022/02/07 06:23:20;;;;;;;0.90;0.50;;;17.50;62.80;;;;;;10291376;28;20591;-72
2022/02/07 06:28:44;;;;;;;2.77;0.60;;;17.50;62.80;;;;;;10325761;28;20203;-71
2022/02/07 06:34:08;;;;;;;2.13;0.50;;;17.50;62.90;;;;;;10332778;28;20195;-71
2022/02/07 06:39:30;;;;;;;1.00;0.57;;;17.50;63.00;;;;;;10332170;28;20219;-71
2022/02/07 06:44:53;;;;;;;1.10;0.60;;;17.40;63.00;;;;;;10330149;28;20226;-71
2022/02/07 06:50:15;;;;;;;1.87;0.60;;;17.50;63.00;;;;;;10332158;28;20219;-71
2022/02/07 06:55:39;;;;;;;0.77;0.50;;;17.40;63.00;;;;;;10310357;28;20582;-68
2022/02/07 07:01:04;;;;;;;1.83;0.57;;;17.40;62.80;;;;;;10326032;28;20226;-70
2022/02/07 07:06:26;;;;;;;1.40;0.50;;;17.40;62.50;;;;;;10331989;28;20296;-69
2022/02/07 07:11:48;;;;;;;2.10;0.60;;;17.40;62.60;;;;;;10328148;28;20223;-69
2022/02/07 07:17:12;;;;;;;2.20;0.70;;;17.40;62.50;;;;;;10327636;28;20199;-69
2022/02/07 07:22:35;;;;;;;0.80;0.47;;;17.40;62.60;;;;;;10327869;28;20602;-68
2022/02/07 07:28:01;;;;;;;1.73;0.60;;;17.40;62.60;;;;;;10329083;28;20198;-71
2022/02/07 07:33:26;;;;;;;2.83;0.80;;;17.40;62.70;;;;;;10314733;28;20306;-69
2022/02/07 07:38:49;;;;;;;3.53;0.90;;;17.40;62.90;;;;;;10289408;28;20207;-69
2022/02/07 07:44:13;;;;;;;2.80;1.00;;;17.30;62.70;;;;;;10329255;28;20248;-70
2022/02/07 07:49:43;;;;;;;2.03;0.80;;;17.30;62.60;;;;;;10324107;28;20230;-69
2022/02/07 07:55:24;;;;;;;2.80;1.20;;;17.30;62.70;;;;;;10327245;28;20187;-68
2022/02/07 08:06:31;;;;;;;1.87;0.60;;;17.30;62.70;;;;;;10311973;28;20191;-69
2022/02/07 08:11:53;;;;;;;1.17;0.80;;;17.30;62.90;;;;;;10328146;28;20211;-69
2022/02/07 08:17:17;;;;;;;2.57;0.70;;;17.30;62.80;;;;;;10327030;28;20555;-70
2022/02/07 08:22:41;;;;;;;2.30;0.77;;;17.30;63.00;;;;;;10287798;28;20307;-70
2022/02/07 08:28:03;;;;;;;2.90;0.90;;;17.20;62.70;;;;;;10316062;28;20194;-69
2022/02/07 08:33:26;;;;;;;2.90;0.70;;;17.30;62.70;;;;;;10325913;28;20219;-69
2022/02/07 08:38:49;;;;;;;1.67;0.60;;;17.30;62.80;;;;;;10323611;28;20199;-69
2022/02/07 08:44:12;;;;;;;3.43;1.00;;;17.30;62.70;;;;;;10324164;28;20219;-69
2022/02/07 08:49:35;;;;;;;1.40;0.60;;;17.30;62.70;;;;;;10328639;28;20705;-69
2022/02/07 08:55:00;;;;;;;2.43;0.80;;;17.30;62.90;;;;;;10335183;28;20194;-71
2022/02/07 09:00:35;;;;;;;2.53;0.83;;;17.30;62.80;;;;;;10335306;28;20276;-71
2022/02/07 09:06:16;;;;;;;1.27;0.73;;;17.30;62.80;;;;;;10335664;28;20214;-70
2022/02/07 09:11:40;;;;;;;2.13;0.80;;;17.20;62.80;;;;;;10333093;28;20211;-68
2022/02/07 09:17:02;;;;;;;1.97;0.70;;;17.30;62.80;;;;;;10334824;28;20199;-69
2022/02/07 09:22:24;;;;;;;2.30;0.80;;;17.30;62.80;;;;;;10335378;28;20226;-69
2022/02/07 09:27:47;;;;;;;2.13;0.70;;;17.30;62.80;;;;;;10334463;28;20226;-71
2022/02/07 09:33:09;;;;;;;2.03;0.70;;;17.30;62.80;;;;;;10335068;28;20222;-70
2022/02/07 09:38:32;;;;;;;3.13;1.20;;;17.20;62.80;;;;;;10333398;28;20195;-70
2022/02/07 09:43:58;;;;;;;2.47;1.10;;;17.30;62.80;;;;;;10334418;28;20223;-69
2022/02/07 09:49:22;;;;;;;4.43;1.00;;;17.30;63.40;;;;;;10330963;28;20257;-68
2022/02/07 09:54:44;;;;;;;3.07;0.90;;;17.30;62.80;;;;;;10330017;28;20199;-69
2022/02/07 10:00:18;;;;;;;2.53;0.90;;;17.30;63.00;;;;;;10331010;28;20231;-69
2022/02/07 10:05:49;;;;;;;2.13;0.70;;;17.30;63.50;;;;;;10330854;28;20226;-69
2022/02/07 10:11:25;;;;;;;2.87;0.80;;;17.40;63.70;;;;;;10332974;28;20215;-70
2022/02/07 10:17:00;;;;;;;2.97;1.00;;;17.40;63.60;;;;;;10333275;28;20206;-70
2022/02/07 10:39:50;;;;;;;2.90;1.07;;;17.40;63.40;;;;;;10301006;28;20282;-70
2022/02/07 10:45:12;;;;;;;3.17;1.33;;;17.40;63.30;;;;;;10327129;28;20215;-69
2022/02/07 10:50:36;;;;;;;2.50;1.10;;;17.40;63.30;;;;;;10323049;28;20291;-69
2022/02/07 10:55:59;;;;;;;2.90;1.10;;;17.40;63.20;;;;;;10329758;28;20200;-68
2022/02/07 11:01:30;;;;;;;2.27;1.03;;;17.40;63.20;;;;;;10324692;28;20227;-73
2022/02/07 11:06:59;;;;;;;3.37;1.10;;;17.40;63.20;;;;;;10329732;28;20250;-73
2022/02/07 11:12:44;;;;;;;4.37;1.63;;;17.40;63.10;;;;;;10323991;28;20219;-71
2022/02/07 11:18:24;;;;;;;4.60;1.23;;;17.40;62.50;;;;;;10326851;28;20199;-70
2022/02/07 11:24:30;;;;;;;4.77;1.30;;;17.40;62.20;;;;;;10327922;28;20792;-68
2022/02/07 11:29:53;;;;;;;3.67;1.20;;;17.40;62.50;;;;;;10320456;28;20219;-74
2022/02/07 11:35:17;;;;;;;2.80;1.10;;;17.30;62.60;;;;;;10330049;28;20195;-72
2022/02/07 11:40:42;;;;;;;3.40;1.10;;;17.40;63.10;;;;;;10328673;28;20593;-72
2022/02/07 11:46:06;;;;;;;4.93;1.33;;;17.40;63.10;;;;;;10361673;23;20229;-69
2022/02/07 11:51:33;;;;;;;2.60;1.17;;;17.40;63.10;;;;;;10363926;28;20686;-67
2022/02/07 11:57:17;;;;;;;3.90;1.10;;;17.50;63.10;;;;;;10329508;28;20207;-68
2022/02/07 12:02:48;;;;;;;3.30;1.23;;;17.40;61.50;;;;;;10319623;28;20223;-68
2022/02/07 12:08:16;;;;;;;5.37;1.43;;;17.40;62.20;;;;;;10318882;28;20667;-68
2022/02/07 12:13:41;;;;;;;4.77;1.43;;;17.40;62.50;;;;;;10296670;28;20211;-68
2022/02/07 12:19:11;;;;;;;5.63;1.40;;;17.40;62.90;;;;;;10328965;28;20709;-68
2022/02/07 12:24:52;;;;;;;2.77;1.10;;;17.40;63.20;;;;;;10315138;28;20311;-69
2022/02/07 12:30:29;;;;;;;4.90;1.30;;;17.40;62.90;;;;;;10329396;28;20225;-68
2022/02/07 12:35:53;;;;;;;3.83;1.47;;;17.40;62.80;;;;;;10328754;28;20897;-67
2022/02/07 12:41:16;;;;;;;3.53;1.17;;;17.30;62.60;;;;;;10326980;28;20203;-67
2022/02/07 12:46:44;;;;;;;2.37;0.90;;;17.30;62.50;;;;;;10319188;28;20219;-68
2022/02/07 12:52:06;;;;;;;3.73;1.10;;;17.40;62.70;;;;;;10307681;28;20190;-68
2022/02/07 12:57:32;;;;;;;3.03;1.27;;;17.30;62.50;;;;;;10327840;28;20702;-67
2022/02/07 13:02:56;;;;;;;3.67;1.40;;;17.30;62.60;;;;;;10299051;28;20235;-67
2022/02/07 13:08:19;;;;;;;4.13;1.43;;;17.30;62.80;;;;;;10312806;28;20698;-67
2022/02/07 13:13:48;;;;;;;2.93;1.10;;;17.30;62.90;;;;;;10328276;28;20234;-67
2022/02/07 13:19:14;;;;;;;2.93;1.30;;;17.30;63.00;;;;;;10327875;28;20301;-67
2022/02/07 13:24:37;;;;;;;5.10;1.57;;;17.30;63.00;;;;;;10327726;28;20215;-67
2022/02/07 13:29:59;;;;;;;3.13;1.00;;;17.30;62.90;;;;;;10327570;28;20199;-67
2022/02/07 13:35:23;;;;;;;2.20;1.00;;;17.30;62.80;;;;;;10330163;28;20215;-67
2022/02/07 13:40:47;;;;;;;3.77;1.53;;;17.30;62.60;;;;;;10300977;28;20234;-67
2022/02/07 13:46:11;;;;;;;2.83;1.03;;;17.30;62.70;;;;;;10318960;28;20234;-68
2022/02/07 13:51:35;;;;;;;2.67;1.00;;;17.30;62.80;;;;;;10306909;28;20219;-67
2022/02/07 13:56:59;;;;;;;2.30;0.87;;;17.30;62.90;;;;;;10322632;28;20848;-68
2022/02/07 14:02:27;;;;;;;2.83;1.20;;;17.30;62.90;;;;;;10303776;28;20793;-68
2022/02/07 14:07:51;;;;;;;3.60;1.23;;;17.30;62.90;;;;;;10305520;28;20244;-67
2022/02/07 14:13:16;;;;;;;2.87;1.20;;;17.30;62.90;;;;;;10325385;28;20223;-67
2022/02/07 14:18:44;;;;;;;3.07;0.90;;;17.30;62.70;;;;;;10327869;28;20211;-67
2022/02/07 14:24:09;;;;;;;2.63;0.87;;;17.30;62.60;;;;;;10301930;28;20262;-68
2022/02/07 14:29:31;;;;;;;2.87;1.00;;;17.30;62.70;;;;;;10293914;28;20586;-67
2022/02/07 14:34:53;;;;;;;2.87;1.30;;;17.30;63.40;;;;;;10325148;28;20598;-67
2022/02/07 14:40:18;;;;;;;3.23;1.20;;;17.30;62.80;;;;;;10326301;28;20202;-67
2022/02/07 14:45:43;;;;;;;2.17;0.87;;;17.30;62.70;;;;;;10315549;28;20234;-67
2022/02/07 14:51:07;;;;;;;4.70;1.43;;;17.30;62.60;;;;;;10327309;28;20301;-67
2022/02/07 14:56:30;;;;;;;3.73;1.07;;;17.30;62.70;;;;;;10316500;28;20226;-67
2022/02/07 15:01:53;;;;;;;3.90;1.03;;;17.30;62.70;;;;;;10317554;28;20210;-67
2022/02/07 15:07:15;;;;;;;3.20;0.90;;;17.30;62.70;;;;;;10317854;28;20266;-67
2022/02/07 15:12:38;;;;;;;3.13;1.00;;;17.30;62.80;;;;;;10303891;28;20203;-67
2022/02/07 15:18:05;;;;;;;3.53;1.20;;;17.30;62.60;;;;;;10320464;28;20954;-66
2022/02/07 15:23:27;;;;;;;1.87;0.83;;;17.40;62.70;;;;;;10290731;28;20224;-67
2022/02/07 15:28:51;;;;;;;1.83;1.00;;;17.30;62.70;;;;;;10308712;28;20199;-67
2022/02/07 15:34:13;;;;;;;2.03;0.70;;;17.30;62.80;;;;;;10331059;28;20215;-67
2022/02/07 15:39:35;;;;;;;2.17;0.70;;;17.30;62.90;;;;;;10330556;28;20199;-67
2022/02/07 15:45:00;;;;;;;2.37;0.83;;;17.30;63.00;;;;;;10327588;28;20223;-67
2022/02/07 15:50:22;;;;;;;1.87;0.73;;;17.30;62.90;;;;;;10329487;28;20209;-67
2022/02/07 15:55:44;;;;;;;2.70;1.00;;;17.30;63.00;;;;;;10330068;28;20219;-67
2022/02/07 16:01:08;;;;;;;4.17;1.13;;;17.30;62.90;;;;;;10324904;28;20205;-67
2022/02/07 16:06:30;;;;;;;3.33;0.90;;;17.30;62.90;;;;;;10296226;28;20230;-69
2022/02/07 16:11:52;;;;;;;1.07;0.73;;;17.30;62.90;;;;;;10328508;28;20222;-68
2022/02/07 16:17:16;;;;;;;4.00;1.20;;;17.40;63.60;;;;;;10329509;28;20223;-68
2022/02/07 16:22:39;;;;;;;2.77;1.13;;;17.40;63.60;;;;;;10326861;28;20219;-67
2022/02/07 16:28:01;;;;;;;1.93;1.13;;;17.40;63.60;;;;;;10313500;28;20191;-67
2022/02/07 16:33:24;;;;;;;2.87;1.40;;;17.50;63.40;;;;;;10289313;28;20599;-67
2022/02/07 16:38:46;;;;;;;2.93;1.23;;;17.40;63.20;;;;;;10295204;28;20203;-67
2022/02/07 16:44:10;;;;;;;2.90;1.20;;;17.40;63.10;;;;;;10329216;28;20223;-67
2022/02/07 16:49:35;;;;;;;4.03;1.20;;;17.40;63.10;;;;;;10328181;28;20277;-67
2022/02/07 16:54:57;;;;;;;2.93;1.10;;;17.40;63.10;;;;;;10327760;28;20222;-68
2022/02/07 17:00:20;;;;;;;2.00;1.07;;;17.40;63.20;;;;;;10322955;28;20209;-67
2022/02/07 17:05:43;;;;;;;1.70;1.17;;;17.40;63.20;;;;;;10327543;28;20223;-67
2022/02/07 17:11:05;;;;;;;4.17;1.20;;;17.40;63.10;;;;;;10331671;28;20671;-67
2022/02/07 17:16:28;;;;;;;2.60;1.27;;;17.40;63.20;;;;;;10337085;28;20341;-67
2022/02/07 17:21:52;;;;;;;2.43;1.20;;;17.40;63.30;;;;;;10327722;28;20210;-67
2022/02/07 17:27:14;;;;;;;2.17;1.07;;;17.40;63.30;;;;;;10331682;28;20690;-67
2022/02/07 17:32:36;;;;;;;3.20;1.10;;;17.40;63.20;;;;;;10333143;28;20199;-67
2022/02/07 17:38:00;;;;;;;1.10;0.90;;;17.40;63.20;;;;;;10335786;28;20578;-67
2022/02/07 17:43:29;;;;;;;1.57;0.93;;;17.40;63.20;;;;;;10331922;28;20226;-67
2022/02/07 17:48:52;;;;;;;2.37;1.30;;;17.40;63.30;;;;;;10312080;28;20698;-67
2022/02/07 17:54:17;;;;;;;2.77;1.10;;;17.40;63.30;;;;;;10332768;28;20695;-67
2022/02/07 17:59:39;;;;;;;3.63;1.30;;;17.40;63.40;;;;;;10323396;28;20188;-67
2022/02/07 18:05:01;;;;;;;1.83;1.03;;;17.40;63.40;;;;;;10334481;28;20621;-68
2022/02/07 18:10:25;;;;;;;2.77;1.13;;;17.40;63.40;;;;;;10356202;23;20199;-67
2022/02/07 18:15:47;;;;;;;2.93;1.17;;;17.40;63.50;;;;;;10285929;28;20200;-68
2022/02/07 18:21:09;;;;;;;2.67;1.03;;;17.40;63.40;;;;;;10266757;28;20225;-68
2022/02/07 18:26:33;;;;;;;1.93;1.10;;;17.40;63.70;;;;;;10230869;29;20216;-67
2022/02/07 18:31:55;;;;;;;1.60;0.80;;;17.40;63.80;;;;;;10248633;28;20247;-67
2022/02/07 18:37:17;;;;;;;2.00;0.90;;;17.50;63.80;;;;;;10249910;29;20204;-67
2022/02/07 18:42:42;;;;;;;1.20;0.70;;;17.50;63.80;;;;;;10251908;28;20220;-68
2022/02/07 18:48:06;;;;;;;2.40;1.35;;;17.40;63.70;;;;;;10251555;29;20444;-69
2022/02/07 18:53:28;;;;;;;2.27;1.07;;;17.60;63.20;;;;;;10249865;28;20755;-69
2022/02/07 18:58:59;;;;;;;3.37;1.23;;;17.50;63.00;;;;;;10243103;28;20204;-68
2022/02/07 19:04:36;;;;;;;3.23;1.53;;;17.40;62.90;;;;;;10206856;29;20224;-68
2022/02/07 19:09:58;;;;;;;3.53;1.17;;;17.40;63.10;;;;;;10206023;29;20201;-68
2022/02/07 19:15:22;;;;;;;1.03;0.80;;;17.40;63.20;;;;;;10244484;29;20219;-68
2022/02/07 19:20:46;;;;;;;2.63;1.00;;;17.40;63.20;;;;;;10244577;28;20220;-68
2022/02/07 19:26:12;;;;;;;2.43;0.97;;;17.40;63.30;;;;;;10244183;29;20228;-69
2022/02/07 19:31:43;;;;;;;1.70;0.90;;;17.40;63.30;;;;;;10204823;29;20221;-69
2022/02/07 19:37:06;;;;;;;1.90;1.10;;;17.40;63.40;;;;;;10230105;29;20204;-68
2022/02/07 19:42:36;;;;;;;2.87;1.20;;;17.30;63.30;;;;;;10242343;29;20762;-68
2022/02/07 19:48:00;;;;;;;2.10;1.13;;;17.30;63.30;;;;;;10243746;29;20252;-68
2022/02/07 19:53:22;;;;;;;2.83;1.03;;;17.30;63.30;;;;;;10243607;29;20713;-68
2022/02/07 19:58:44;;;;;;;2.57;1.10;;;17.30;63.30;;;;;;10207897;29;20207;-68
2022/02/07 20:04:08;;;;;;;2.50;1.20;;;17.30;63.30;;;;;;10243826;29;20868;-71
2022/02/07 20:09:30;;;;;;;1.13;0.77;;;17.30;63.90;;;;;;10249610;28;20196;-68
2022/02/07 20:14:54;;;;;;;2.13;1.30;;;17.30;63.30;;;;;;10249397;28;20216;-68
2022/02/07 20:20:17;;;;;;;1.90;1.00;;;17.30;63.30;;;;;;10247998;28;20200;-68
2022/02/07 20:25:39;;;;;;;2.77;1.13;;;17.30;63.30;;;;;;10247367;29;20218;-68
2022/02/07 20:31:03;;;;;;;1.60;1.00;;;17.30;63.40;;;;;;10246522;29;20697;-68
2022/02/07 20:36:26;;;;;;;3.27;1.10;;;17.30;63.40;;;;;;10247657;29;20192;-69
2022/02/07 20:41:48;;;;;;;2.53;1.10;;;17.30;63.40;;;;;;10245224;28;20216;-68
2022/02/07 20:47:15;;;;;;;2.93;1.30;;;17.30;63.30;;;;;;10249245;28;20751;-68
2022/02/07 20:52:39;;;;;;;2.33;1.10;;;17.30;63.40;;;;;;10254120;29;20213;-68
2022/02/07 20:58:02;;;;;;;2.50;1.13;;;17.30;63.40;;;;;;10254359;29;20195;-67
2022/02/07 21:03:24;;;;;;;1.73;1.07;;;17.30;63.40;;;;;;10250750;28;20224;-68
2022/02/07 21:08:47;;;;;;;2.00;1.00;;;17.30;63.40;;;;;;10248987;28;20209;-67
2022/02/07 21:14:13;;;;;;;1.43;1.00;;;17.30;63.40;;;;;;10247805;28;20228;-68
2022/02/07 21:19:40;;;;;;;2.20;1.13;;;17.30;63.40;;;;;;10246788;29;20204;-68
2022/02/07 21:25:04;;;;;;;2.30;1.30;;;17.30;63.40;;;;;;10247043;28;20235;-68
2022/02/07 21:30:27;;;;;;;3.47;1.23;;;17.30;63.40;;;;;;10247430;28;20688;-68
2022/02/07 21:35:53;;;;;;;3.50;1.17;;;17.30;63.40;;;;;;10249653;28;20208;-68
2022/02/07 21:41:20;;;;;;;2.93;1.33;;;17.30;63.50;;;;;;10247903;28;20216;-68
2022/02/07 21:46:44;;;;;;;1.93;1.03;;;17.30;63.50;;;;;;10242273;29;20258;-69
2022/02/07 21:52:06;;;;;;;3.10;1.20;;;17.30;63.50;;;;;;10247912;28;20564;-68
2022/02/07 21:57:30;;;;;;;4.53;1.47;;;17.30;63.50;;;;;;10245968;28;20560;-68
2022/02/07 22:02:52;;;;;;;2.70;1.20;;;17.20;63.40;;;;;;10245372;28;20216;-68
2022/02/07 22:08:14;;;;;;;2.93;1.37;;;17.30;63.40;;;;;;10245967;29;20279;-68
2022/02/07 22:13:41;;;;;;;2.67;1.30;;;17.20;63.40;;;;;;10245052;28;20232;-68
2022/02/07 22:19:06;;;;;;;2.50;1.20;;;17.30;63.50;;;;;;10246670;28;20262;-68
2022/02/07 22:24:28;;;;;;;3.03;1.27;;;17.30;63.50;;;;;;10251730;28;20216;-68
2022/02/07 22:29:55;;;;;;;2.60;1.20;;;17.20;63.40;;;;;;10250238;29;20207;-68
2022/02/07 22:35:17;;;;;;;3.60;1.30;;;17.30;63.40;;;;;;10253723;28;20759;-68
2022/02/07 22:40:39;;;;;;;1.80;1.10;;;17.30;63.50;;;;;;10252402;28;20212;-69
2022/02/07 22:46:06;;;;;;;1.57;0.87;;;17.20;63.40;;;;;;10250929;28;20213;-69
2022/02/07 22:51:28;;;;;;;2.83;0.93;;;17.30;63.40;;;;;;10249937;28;20227;-69
2022/02/07 22:56:50;;;;;;;1.73;1.00;;;17.30;63.40;;;;;;10251326;28;20193;-68
2022/02/07 23:02:13;;;;;;;1.90;1.13;;;17.20;63.40;;;;;;10246711;29;20742;-69
2022/02/07 23:07:41;;;;;;;2.60;1.00;;;17.30;63.30;;;;;;10251992;28;20215;-69
2022/02/07 23:13:19;;;;;;;1.93;1.27;;;17.30;63.40;;;;;;10249484;29;20232;-68
2022/02/07 23:18:48;;;;;;;1.87;0.70;;;17.30;63.40;;;;;;10251065;28;20220;-69
2022/02/07 23:35:36;;;;;;;2.17;1.07;;;17.20;63.30;;;;;;10249548;29;20181;-69
2022/02/07 23:46:41;;;;;;;2.73;0.90;;;17.20;63.30;;;;;;10248014;29;20223;-68
2022/02/07 23:52:13;;;;;;;2.43;1.10;;;17.20;63.30;;;;;;10246659;29;20243;-68
2022/02/07 23:57:42;;;;;;;1.60;0.83;;;17.20;63.30;;;;;;10248880;28;20796;-69
